Time;durP1;ratioP1;P1;durP2;ratioP2;P2;SDS_P1;SDS_P2;PMS_P1;PMS_P2;Temp;Humidity;BMP_temperature;BMP_pressure;BME280_temperature;BME280_humidity;BME280_pressure;Samples;Min_cycle;Max_cycle;Signal;HPM_P1;HPM_P2
2022/03/26 00:00:09;;;;;;;30.53;18.07;;;6.90;99.90;;;;;;4975795;28;20566;-82
2022/03/26 00:02:35;;;;;;;30.93;17.93;;;6.90;99.90;;;;;;4975444;28;20173;-81
2022/03/26 00:05:01;;;;;;;30.67;17.10;;;6.80;99.90;;;;;;4975747;28;20248;-82
2022/03/26 00:07:27;;;;;;;29.37;17.43;;;6.80;99.90;;;;;;4975553;28;20594;-82
2022/03/26 00:09:53;;;;;;;31.07;18.00;;;6.80;99.90;;;;;;4975466;28;20169;-82
2022/03/26 00:12:19;;;;;;;30.13;18.07;;;6.70;99.90;;;;;;4975507;28;20260;-82
2022/03/26 00:14:44;;;;;;;30.53;17.03;;;6.70;99.90;;;;;;4975608;28;20180;-80
2022/03/26 00:17:10;;;;;;;29.77;16.70;;;6.70;99.90;;;;;;4975352;28;20185;-80
2022/03/26 00:19:36;;;;;;;35.10;19.23;;;6.70;99.90;;;;;;4975539;28;20183;-80
2022/03/26 00:22:03;;;;;;;35.90;18.40;;;6.60;99.90;;;;;;4975425;28;20192;-81
2022/03/26 00:24:28;;;;;;;29.30;17.63;;;6.60;99.90;;;;;;4975292;28;20184;-79
2022/03/26 00:26:54;;;;;;;27.00;17.70;;;6.60;99.90;;;;;;4975438;28;20204;-82
2022/03/26 00:29:20;;;;;;;25.63;17.30;;;6.60;99.90;;;;;;4975500;28;20172;-82
2022/03/26 00:31:46;;;;;;;31.87;17.10;;;6.50;99.90;;;;;;4975322;28;20185;-82
2022/03/26 00:34:13;;;;;;;30.90;16.83;;;6.50;99.90;;;;;;4975303;28;20169;-81
2022/03/26 00:36:38;;;;;;;25.43;17.20;;;6.50;99.90;;;;;;4975274;28;20235;-82
2022/03/26 00:39:04;;;;;;;34.00;17.07;;;6.50;99.90;;;;;;4975126;28;20604;-82
2022/03/26 00:41:30;;;;;;;28.37;17.17;;;6.50;99.90;;;;;;4975189;28;20176;-81
2022/03/26 00:43:57;;;;;;;27.67;16.93;;;6.50;99.90;;;;;;4975364;28;20720;-81
2022/03/26 00:46:23;;;;;;;29.40;16.13;;;6.50;99.90;;;;;;4975094;28;20334;-82
2022/03/26 00:48:49;;;;;;;29.60;17.87;;;6.50;99.90;;;;;;4973948;28;20185;-82
2022/03/26 00:51:15;;;;;;;35.47;17.80;;;6.50;99.90;;;;;;4975335;28;20165;-82
2022/03/26 00:53:42;;;;;;;30.27;18.37;;;6.50;99.90;;;;;;4974922;28;20177;-82
2022/03/26 00:56:08;;;;;;;30.53;17.43;;;6.40;99.90;;;;;;4975149;28;20199;-80
2022/03/26 00:58:33;;;;;;;27.23;17.60;;;6.40;99.90;;;;;;4975133;28;20552;-79
2022/03/26 01:00:59;;;;;;;33.13;18.23;;;6.40;99.90;;;;;;4978363;28;20616;-80
2022/03/26 01:03:25;;;;;;;36.10;17.60;;;6.30;99.90;;;;;;4977430;28;20259;-82
2022/03/26 01:05:51;;;;;;;31.63;18.10;;;6.30;99.90;;;;;;4978784;28;20200;-79
2022/03/26 01:08:16;;;;;;;30.20;17.63;;;6.30;99.90;;;;;;4978725;28;20259;-79
2022/03/26 01:10:44;;;;;;;31.23;17.50;;;6.20;99.90;;;;;;4977206;28;20189;-82
2022/03/26 01:13:11;;;;;;;35.20;17.53;;;6.20;99.90;;;;;;4977323;28;20281;-81
2022/03/26 01:15:37;;;;;;;28.43;17.67;;;6.20;99.90;;;;;;4977297;28;20615;-81
2022/03/26 01:18:03;;;;;;;31.80;18.30;;;6.10;99.90;;;;;;4978450;28;20187;-81
2022/03/26 01:20:29;;;;;;;30.10;17.23;;;6.20;99.90;;;;;;4978573;28;20192;-83
2022/03/26 01:22:54;;;;;;;28.23;17.33;;;6.10;99.90;;;;;;4978566;28;20173;-81
2022/03/26 01:25:20;;;;;;;36.40;18.20;;;6.10;99.90;;;;;;4978119;28;20227;-82
2022/03/26 01:27:46;;;;;;;30.40;18.47;;;6.00;99.90;;;;;;4978257;28;20235;-82
2022/03/26 01:30:13;;;;;;;31.00;17.63;;;6.00;99.90;;;;;;4978390;28;20174;-82
2022/03/26 01:32:38;;;;;;;32.63;17.80;;;6.10;99.90;;;;;;4978178;28;20185;-81
2022/03/26 01:35:05;;;;;;;32.37;17.30;;;6.10;99.90;;;;;;4993326;28;20188;-81
2022/03/26 01:37:30;;;;;;;32.40;16.50;;;6.10;99.90;;;;;;4976765;28;20706;-82
2022/03/26 01:39:56;;;;;;;29.93;16.57;;;6.00;99.90;;;;;;4976798;28;20177;-81
2022/03/26 01:42:22;;;;;;;32.30;17.03;;;6.00;99.90;;;;;;4978084;28;20192;-81
2022/03/26 01:44:48;;;;;;;31.17;17.73;;;5.90;99.90;;;;;;4978052;28;20176;-82
2022/03/26 01:47:14;;;;;;;31.40;18.60;;;5.90;99.90;;;;;;4977880;28;20651;-82
2022/03/26 01:49:40;;;;;;;31.30;16.93;;;5.80;99.90;;;;;;4978121;28;20184;-82
2022/03/26 01:52:10;;;;;;;32.77;17.73;;;5.80;99.90;;;;;;4977878;28;20184;-82
2022/03/26 01:54:38;;;;;;;29.40;16.90;;;5.80;99.90;;;;;;4977687;28;20165;-82
2022/03/26 01:57:06;;;;;;;31.77;18.27;;;5.70;99.90;;;;;;4977896;28;20185;-81
2022/03/26 01:59:33;;;;;;;31.27;16.53;;;5.60;99.90;;;;;;4977737;28;20176;-82
2022/03/26 02:01:59;;;;;;;29.47;16.60;;;5.60;99.90;;;;;;4977871;28;20220;-82
2022/03/26 02:04:25;;;;;;;32.93;17.63;;;5.70;99.90;;;;;;4977729;28;20173;-82
2022/03/26 02:06:50;;;;;;;31.03;17.47;;;5.60;99.90;;;;;;4977655;28;20600;-82
2022/03/26 02:09:16;;;;;;;29.17;16.73;;;5.60;99.90;;;;;;4977442;28;20509;-82
2022/03/26 02:11:45;;;;;;;31.47;17.33;;;5.60;99.90;;;;;;4976322;28;20699;-81
2022/03/26 02:14:12;;;;;;;33.17;17.33;;;5.70;99.90;;;;;;4977547;28;20184;-82
2022/03/26 02:16:40;;;;;;;35.27;18.67;;;5.60;99.90;;;;;;4977650;28;20264;-82
2022/03/26 02:19:07;;;;;;;32.07;17.90;;;5.60;99.90;;;;;;4977479;28;20180;-82
2022/03/26 02:21:35;;;;;;;35.47;17.37;;;5.50;99.90;;;;;;4976155;28;20173;-81
2022/03/26 02:24:02;;;;;;;29.27;17.47;;;5.50;99.90;;;;;;4977196;28;20524;-81
2022/03/26 02:26:28;;;;;;;33.77;18.20;;;5.50;99.90;;;;;;4976150;28;20603;-82
2022/03/26 02:28:56;;;;;;;35.30;17.07;;;5.50;99.90;;;;;;4977139;28;20263;-81
2022/03/26 02:31:23;;;;;;;34.70;18.23;;;5.50;99.90;;;;;;4976096;28;20184;-81
2022/03/26 02:33:49;;;;;;;39.10;17.33;;;5.50;99.90;;;;;;4977312;28;20172;-81
2022/03/26 02:36:15;;;;;;;29.60;17.77;;;5.40;99.90;;;;;;4976992;28;20223;-82
2022/03/26 02:38:42;;;;;;;37.13;18.43;;;5.40;99.90;;;;;;4977000;28;20173;-82
2022/03/26 02:41:08;;;;;;;32.83;19.27;;;5.40;99.90;;;;;;4976768;28;20196;-82
2022/03/26 02:43:34;;;;;;;37.50;18.23;;;5.40;99.90;;;;;;4976929;28;20239;-81
2022/03/26 02:46:01;;;;;;;32.50;17.80;;;5.50;99.90;;;;;;4976956;28;20211;-82
2022/03/26 02:48:28;;;;;;;31.47;17.47;;;5.40;99.90;;;;;;4976831;28;20183;-82
2022/03/26 02:50:53;;;;;;;33.10;18.20;;;5.40;99.90;;;;;;4991858;28;20177;-82
2022/03/26 02:53:19;;;;;;;34.37;18.90;;;5.40;99.90;;;;;;4976725;28;20176;-81
2022/03/26 02:55:45;;;;;;;28.93;17.73;;;5.40;99.90;;;;;;4976529;28;20176;-81
2022/03/26 02:58:10;;;;;;;33.63;18.63;;;5.40;99.90;;;;;;4976659;28;20181;-82
2022/03/26 03:00:38;;;;;;;31.53;17.80;;;5.40;99.90;;;;;;4976839;28;20240;-82
2022/03/26 03:03:04;;;;;;;34.83;17.73;;;5.40;99.90;;;;;;4976674;28;20181;-81
2022/03/26 03:05:30;;;;;;;33.60;19.10;;;5.40;99.90;;;;;;4976683;28;20183;-82
2022/03/26 03:07:56;;;;;;;33.90;18.70;;;5.40;99.90;;;;;;5405013;23;20538;-81
2022/03/26 03:10:22;;;;;;;36.03;18.37;;;5.40;99.90;;;;;;4969258;28;20176;-82
2022/03/26 03:12:48;;;;;;;36.50;18.10;;;5.40;99.90;;;;;;4976472;28;20246;-82
2022/03/26 03:15:18;;;;;;;30.63;17.63;;;5.30;99.90;;;;;;4976546;28;20180;-81
2022/03/26 03:17:46;;;;;;;35.30;18.40;;;5.30;99.90;;;;;;4976441;28;20177;-80
2022/03/26 03:20:12;;;;;;;31.73;18.90;;;5.30;99.90;;;;;;4975330;28;20235;-81
2022/03/26 03:22:39;;;;;;;31.07;18.33;;;5.30;99.90;;;;;;4975970;28;20172;-80
2022/03/26 03:25:06;;;;;;;35.73;18.30;;;5.30;99.90;;;;;;4976027;28;20180;-80
2022/03/26 03:27:32;;;;;;;33.73;18.80;;;5.30;99.90;;;;;;4976258;28;20212;-80
2022/03/26 03:29:58;;;;;;;34.13;20.00;;;5.30;99.90;;;;;;4976191;28;20716;-80
2022/03/26 03:32:26;;;;;;;34.33;19.73;;;5.30;99.90;;;;;;4976092;28;20176;-82
2022/03/26 03:34:51;;;;;;;36.87;20.03;;;5.30;99.90;;;;;;4991169;28;20690;-80
2022/03/26 03:37:17;;;;;;;36.10;19.37;;;5.40;99.90;;;;;;4975988;28;20200;-81
2022/03/26 03:39:44;;;;;;;38.13;20.77;;;5.40;99.90;;;;;;4975364;28;20521;-81
2022/03/26 03:42:10;;;;;;;39.80;20.03;;;5.40;99.90;;;;;;4975980;28;20211;-82
2022/03/26 03:44:36;;;;;;;39.07;19.63;;;5.40;99.90;;;;;;4976148;28;20177;-82
2022/03/26 03:47:02;;;;;;;38.30;20.00;;;5.40;99.90;;;;;;4975911;28;20250;-82
2022/03/26 03:49:31;;;;;;;35.93;20.43;;;5.40;99.90;;;;;;4976053;28;20195;-82
2022/03/26 03:51:58;;;;;;;38.83;19.90;;;5.40;99.90;;;;;;4975773;28;20281;-82
2022/03/26 03:54:23;;;;;;;39.43;19.87;;;5.40;99.90;;;;;;4975701;28;20615;-82
2022/03/26 03:56:49;;;;;;;39.83;20.93;;;5.40;99.90;;;;;;4975812;28;20172;-82
2022/03/26 03:59:15;;;;;;;43.83;21.90;;;5.50;99.90;;;;;;4975658;28;20662;-82
2022/03/26 04:01:41;;;;;;;37.53;20.20;;;5.50;99.90;;;;;;4975720;28;20659;-82
2022/03/26 04:04:07;;;;;;;32.73;19.90;;;5.50;99.90;;;;;;4975614;28;20234;-82
2022/03/26 04:06:33;;;;;;;39.63;21.27;;;5.50;99.90;;;;;;4975473;28;20216;-82
2022/03/26 04:08:59;;;;;;;40.83;20.97;;;5.60;99.90;;;;;;4975504;28;20235;-82
2022/03/26 04:11:24;;;;;;;48.17;22.57;;;5.50;99.90;;;;;;4975363;28;20176;-82
2022/03/26 04:13:53;;;;;;;43.73;22.17;;;5.50;99.90;;;;;;4975793;28;20164;-82
2022/03/26 04:16:22;;;;;;;47.67;21.23;;;5.40;99.90;;;;;;4975559;28;20168;-82
2022/03/26 04:18:49;;;;;;;40.30;19.90;;;5.30;99.90;;;;;;4976008;28;20191;-82
2022/03/26 04:21:15;;;;;;;43.80;21.13;;;5.30;99.90;;;;;;4975456;28;20176;-82
2022/03/26 04:23:41;;;;;;;39.30;19.30;;;5.30;99.90;;;;;;4975498;28;20196;-82
2022/03/26 04:26:08;;;;;;;41.90;21.13;;;5.30;99.90;;;;;;4990221;28;20217;-82
2022/03/26 04:28:34;;;;;;;40.67;21.13;;;5.30;99.90;;;;;;4975518;28;20232;-82
2022/03/26 04:31:00;;;;;;;38.13;20.37;;;5.30;99.90;;;;;;4975585;28;20582;-83
2022/03/26 04:33:26;;;;;;;41.83;21.10;;;5.20;99.90;;;;;;4975393;28;20255;-82
2022/03/26 04:35:52;;;;;;;40.47;21.03;;;5.30;99.90;;;;;;4978379;28;20212;-82
2022/03/26 04:38:18;;;;;;;40.57;20.77;;;5.30;99.90;;;;;;4979308;28;20185;-83
2022/03/26 04:40:43;;;;;;;40.67;20.53;;;5.30;99.90;;;;;;4978967;28;20251;-82
2022/03/26 04:43:09;;;;;;;39.40;19.60;;;5.20;99.90;;;;;;4979156;28;20180;-82
2022/03/26 04:45:35;;;;;;;39.73;19.80;;;5.20;99.90;;;;;;4979276;28;20181;-82
2022/03/26 04:48:01;;;;;;;36.87;18.97;;;5.20;99.90;;;;;;4978861;28;20665;-82
2022/03/26 04:50:26;;;;;;;35.93;20.80;;;5.10;99.90;;;;;;4979071;28;20188;-82
2022/03/26 04:52:52;;;;;;;45.20;21.67;;;5.10;99.90;;;;;;4979173;28;20173;-83
2022/03/26 04:55:18;;;;;;;41.03;20.63;;;5.10;99.90;;;;;;4978771;28;20552;-83
2022/03/26 04:57:47;;;;;;;40.40;20.00;;;5.00;99.90;;;;;;4979085;28;20268;-82
2022/03/26 05:00:15;;;;;;;40.40;21.23;;;5.00;99.90;;;;;;4978961;28;20184;-81
2022/03/26 05:02:42;;;;;;;45.40;21.63;;;5.00;99.90;;;;;;4978806;28;20259;-82
2022/03/26 05:05:09;;;;;;;42.63;20.63;;;4.90;99.90;;;;;;4993861;28;20207;-82
2022/03/26 05:07:48;;;;;;;42.67;20.87;;;4.90;99.90;;;;;;4978630;28;20208;-81
2022/03/26 05:10:19;;;;;;;40.27;20.30;;;4.90;99.90;;;;;;4978912;28;20168;-82
2022/03/26 05:12:47;;;;;;;41.13;21.53;;;4.80;99.90;;;;;;4978646;28;20200;-81
2022/03/26 05:15:14;;;;;;;47.07;22.07;;;4.70;99.90;;;;;;4978646;28;20272;-82
2022/03/26 05:17:40;;;;;;;42.77;22.07;;;4.80;99.90;;;;;;4978671;28;20184;-82
2022/03/26 05:20:07;;;;;;;43.40;21.73;;;4.80;99.90;;;;;;4978565;28;20180;-81
2022/03/26 05:22:33;;;;;;;41.13;23.17;;;4.80;99.90;;;;;;4978613;28;20326;-82
2022/03/26 05:24:58;;;;;;;47.50;22.27;;;4.80;99.90;;;;;;4978343;28;20251;-82
2022/03/26 05:27:25;;;;;;;41.87;22.77;;;4.80;99.90;;;;;;4978548;28;20263;-79
2022/03/26 05:29:51;;;;;;;47.30;21.93;;;4.80;99.90;;;;;;4977142;28;20183;-79
2022/03/26 05:32:17;;;;;;;42.83;21.70;;;4.80;99.90;;;;;;4978354;28;20169;-79
2022/03/26 05:34:44;;;;;;;43.67;21.33;;;4.80;99.90;;;;;;4978368;28;20199;-81
2022/03/26 05:37:10;;;;;;;40.70;21.00;;;4.80;99.90;;;;;;4978197;28;20198;-81
2022/03/26 05:39:36;;;;;;;47.47;23.80;;;4.80;99.90;;;;;;4976996;28;20181;-82
2022/03/26 05:42:02;;;;;;;43.47;21.53;;;4.90;99.90;;;;;;4977902;28;20176;-81
2022/03/26 05:44:28;;;;;;;46.20;22.77;;;4.80;99.90;;;;;;4977957;28;20165;-81
2022/03/26 05:46:53;;;;;;;45.70;23.37;;;4.90;99.90;;;;;;4977938;28;20219;-82
2022/03/26 05:49:19;;;;;;;51.60;25.30;;;4.90;99.90;;;;;;4977999;28;20238;-82
2022/03/26 05:51:45;;;;;;;50.20;24.53;;;5.00;99.90;;;;;;4978040;28;20596;-82
2022/03/26 05:54:12;;;;;;;59.57;26.43;;;5.00;99.90;;;;;;4977861;28;20243;-82
2022/03/26 05:56:38;;;;;;;48.60;25.20;;;5.20;99.90;;;;;;4978030;28;20185;-82
2022/03/26 05:59:11;;;;;;;50.43;25.10;;;5.20;99.90;;;;;;4977686;28;20311;-82
2022/03/26 06:01:36;;;;;;;51.13;25.53;;;5.30;99.90;;;;;;4977852;28;20165;-82
2022/03/26 06:04:03;;;;;;;52.20;26.27;;;5.40;99.90;;;;;;4977902;28;20607;-83
2022/03/26 06:06:29;;;;;;;61.93;26.53;;;5.40;99.90;;;;;;4977667;28;20212;-82
2022/03/26 06:08:55;;;;;;;51.00;25.63;;;5.50;99.90;;;;;;4977084;28;20247;-82
2022/03/26 06:11:20;;;;;;;58.07;28.63;;;5.60;99.90;;;;;;4977553;28;20189;-82
2022/03/26 06:13:47;;;;;;;51.07;26.07;;;5.60;99.90;;;;;;4977613;28;20165;-81
2022/03/26 06:16:13;;;;;;;57.37;30.20;;;5.70;99.90;;;;;;4977912;28;20177;-82
2022/03/26 06:18:39;;;;;;;61.37;31.40;;;5.80;99.90;;;;;;4976292;28;20239;-83
2022/03/26 06:21:05;;;;;;;61.13;29.57;;;5.80;99.90;;;;;;4977406;28;20181;-81
2022/03/26 06:23:32;;;;;;;59.87;31.83;;;5.80;99.90;;;;;;4977451;28;20176;-82
2022/03/26 06:25:58;;;;;;;61.23;31.20;;;5.90;99.90;;;;;;4977467;28;20185;-82
2022/03/26 06:28:24;;;;;;;67.73;33.03;;;5.90;99.90;;;;;;4977104;28;20191;-82
2022/03/26 06:30:51;;;;;;;63.17;31.73;;;6.00;99.90;;;;;;4977549;28;20165;-82
2022/03/26 06:33:18;;;;;;;69.03;34.07;;;6.00;99.90;;;;;;4977263;28;20207;-83
2022/03/26 06:35:46;;;;;;;68.50;34.53;;;6.00;99.90;;;;;;4977139;28;20200;-82
2022/03/26 06:38:11;;;;;;;67.03;34.70;;;6.10;99.90;;;;;;4977078;28;20169;-82
2022/03/26 06:40:40;;;;;;;70.80;35.27;;;6.00;99.90;;;;;;4976598;28;20312;-82
2022/03/26 06:43:07;;;;;;;71.63;36.50;;;6.20;99.90;;;;;;4977206;28;20169;-83
2022/03/26 06:45:34;;;;;;;67.07;33.73;;;6.20;99.90;;;;;;4977033;28;20247;-82
2022/03/26 06:48:00;;;;;;;65.97;34.27;;;6.30;99.90;;;;;;4977196;28;20219;-82
2022/03/26 06:50:26;;;;;;;68.40;35.90;;;6.40;99.90;;;;;;4976924;28;20177;-82
2022/03/26 06:52:52;;;;;;;67.13;35.77;;;6.50;99.90;;;;;;4976909;28;20164;-82
2022/03/26 06:55:18;;;;;;;73.47;37.03;;;6.60;99.90;;;;;;4975179;28;20560;-81
2022/03/26 06:57:45;;;;;;;83.97;42.30;;;6.70;99.90;;;;;;4974753;28;20689;-79
2022/03/26 07:00:11;;;;;;;78.90;39.93;;;6.80;99.90;;;;;;4976990;28;20176;-79
2022/03/26 07:02:37;;;;;;;81.03;40.60;;;7.00;99.90;;;;;;4975369;28;20185;-79
2022/03/26 07:05:04;;;;;;;82.37;42.03;;;7.10;99.90;;;;;;4976743;28;20177;-79
2022/03/26 07:07:30;;;;;;;83.17;41.77;;;7.30;99.90;;;;;;4976432;28;20196;-80
2022/03/26 07:09:57;;;;;;;73.80;37.57;;;7.40;99.90;;;;;;4976034;28;20239;-79
2022/03/26 07:12:23;;;;;;;69.97;37.20;;;7.40;99.90;;;;;;4976358;28;20180;-79
2022/03/26 07:14:48;;;;;;;86.70;41.83;;;7.50;99.90;;;;;;4975267;28;20227;-82
2022/03/26 07:17:16;;;;;;;82.20;40.57;;;7.70;99.90;;;;;;4976187;28;20187;-81
2022/03/26 07:19:42;;;;;;;77.87;40.90;;;7.70;99.90;;;;;;4976310;28;20180;-82
2022/03/26 07:22:08;;;;;;;75.43;39.07;;;7.80;99.90;;;;;;4976086;28;20185;-80
2022/03/26 07:24:35;;;;;;;73.47;39.20;;;7.90;99.90;;;;;;4975974;28;20175;-79
2022/03/26 07:27:00;;;;;;;81.13;39.73;;;8.00;99.90;;;;;;4973928;28;20223;-80
2022/03/26 07:29:26;;;;;;;79.33;39.30;;;8.20;99.90;;;;;;4976028;28;20181;-83
2022/03/26 07:31:52;;;;;;;76.53;40.07;;;8.30;99.90;;;;;;4975150;28;20180;-80
2022/03/26 07:34:19;;;;;;;83.83;37.70;;;8.40;99.90;;;;;;4975428;28;20173;-80
2022/03/26 07:36:45;;;;;;;70.07;35.30;;;8.50;99.90;;;;;;4975833;28;20180;-79
2022/03/26 07:39:12;;;;;;;71.50;38.40;;;8.60;99.90;;;;;;4974502;28;20275;-80
2022/03/26 07:41:39;;;;;;;72.73;38.10;;;8.70;99.90;;;;;;4987291;28;20189;-80
2022/03/26 07:44:05;;;;;;;82.57;38.13;;;8.90;99.90;;;;;;4987531;28;20495;-80
2022/03/26 07:46:30;;;;;;;69.87;36.20;;;9.00;99.90;;;;;;4957573;28;20260;-79
2022/03/26 07:48:56;;;;;;;69.37;36.60;;;9.10;99.90;;;;;;4956594;28;20566;-80
2022/03/26 07:51:22;;;;;;;66.43;33.93;;;9.20;99.90;;;;;;4957133;28;20181;-81
2022/03/26 07:53:47;;;;;;;70.00;37.37;;;9.30;99.90;;;;;;4957123;28;20515;-79
2022/03/26 07:56:13;;;;;;;70.10;36.83;;;9.30;99.90;;;;;;4967778;28;20180;-80
2022/03/26 07:58:39;;;;;;;64.33;34.00;;;9.50;99.90;;;;;;4956455;28;20189;-79
2022/03/26 08:01:06;;;;;;;66.17;35.00;;;9.60;99.90;;;;;;4974761;28;20180;-79
2022/03/26 08:03:33;;;;;;;67.47;35.27;;;9.80;99.90;;;;;;4973070;28;20196;-80
2022/03/26 08:05:59;;;;;;;68.80;35.30;;;9.80;99.90;;;;;;4974456;28;20184;-83
2022/03/26 08:08:25;;;;;;;63.77;34.00;;;9.90;99.90;;;;;;4974659;28;20331;-83
2022/03/26 08:10:51;;;;;;;63.03;33.37;;;10.00;99.90;;;;;;4975375;28;20176;-81
2022/03/26 08:13:17;;;;;;;64.17;33.87;;;10.10;99.90;;;;;;4975528;28;20169;-78
2022/03/26 08:15:43;;;;;;;56.10;32.37;;;10.20;99.90;;;;;;4973996;28;20838;-79
2022/03/26 08:18:09;;;;;;;57.43;33.17;;;10.30;99.90;;;;;;4975199;28;20265;-80
2022/03/26 08:20:34;;;;;;;62.87;32.73;;;10.30;99.90;;;;;;4974557;28;20196;-80
2022/03/26 08:23:00;;;;;;;67.23;33.63;;;10.30;99.90;;;;;;4974240;28;20184;-79
2022/03/26 08:28:14;;;;;;;62.57;31.47;;;10.40;99.90;;;;;;4961503;28;20268;-78
2022/03/26 08:30:41;;;;;;;60.90;31.40;;;10.50;99.90;;;;;;4971635;28;20180;-82
2022/03/26 08:33:07;;;;;;;57.37;30.47;;;10.70;99.90;;;;;;4974361;28;20188;-79
2022/03/26 08:35:38;;;;;;;55.40;30.23;;;10.80;99.90;;;;;;4974609;28;20239;-80
2022/03/26 08:38:05;;;;;;;54.47;29.93;;;11.00;99.90;;;;;;4975131;28;20171;-80
2022/03/26 08:40:31;;;;;;;51.73;28.00;;;11.10;99.90;;;;;;4974226;28;20192;-81
2022/03/26 08:42:59;;;;;;;53.20;29.07;;;11.10;99.90;;;;;;4974999;28;20176;-81
2022/03/26 08:45:29;;;;;;;54.27;28.00;;;11.30;99.90;;;;;;4974700;28;20176;-82
2022/03/26 08:47:55;;;;;;;47.70;27.70;;;11.40;99.90;;;;;;4974615;28;20212;-82
2022/03/26 08:50:22;;;;;;;45.27;27.37;;;11.40;99.90;;;;;;4975304;28;20247;-83
2022/03/26 08:52:48;;;;;;;49.37;27.33;;;11.40;99.90;;;;;;4974808;28;20573;-82
2022/03/26 08:55:15;;;;;;;49.73;26.00;;;11.40;99.90;;;;;;4975209;28;20259;-84
2022/03/26 08:57:41;;;;;;;42.25;24.77;;;11.60;99.90;;;;;;4974788;28;20279;-83
2022/03/26 09:00:07;;;;;;;45.63;26.47;;;11.80;99.90;;;;;;4976385;28;20216;-81
2022/03/26 09:02:33;;;;;;;46.33;26.15;;;11.90;99.90;;;;;;4974354;28;20530;-80
2022/03/26 09:04:59;;;;;;;46.25;26.45;;;12.00;99.90;;;;;;4975005;28;20169;-82
2022/03/26 09:07:25;;;;;;;42.33;24.90;;;12.20;99.90;;;;;;4974894;28;20212;-79
2022/03/26 09:09:50;;;;;;;41.60;25.63;;;12.30;99.90;;;;;;4973638;28;20220;-79
2022/03/26 09:12:16;;;;;;;40.88;22.85;;;12.50;99.90;;;;;;4974376;28;20583;-79
2022/03/26 09:14:43;;;;;;;38.95;23.60;;;12.50;99.90;;;;;;4974962;28;20161;-79
2022/03/26 09:17:09;;;;;;;36.55;22.55;;;12.70;99.90;;;;;;4974479;28;20268;-79
2022/03/26 09:19:36;;;;;;;39.17;22.27;;;12.70;99.90;;;;;;4974535;28;20231;-83
2022/03/26 09:22:02;;;;;;;34.33;20.88;;;12.70;99.90;;;;;;4977576;28;20192;-81
2022/03/26 09:24:28;;;;;;;32.88;21.05;;;12.80;99.90;;;;;;4977672;28;20183;-81
2022/03/26 09:26:54;;;;;;;35.88;21.50;;;12.80;99.90;;;;;;4978086;28;20697;-81
2022/03/26 09:29:20;;;;;;;32.28;20.70;;;13.00;99.90;;;;;;4977887;28;20192;-83
2022/03/26 09:31:46;;;;;;;38.67;21.95;;;13.10;99.90;;;;;;4976797;28;20335;-79
2022/03/26 09:34:12;;;;;;;34.10;18.42;;;13.10;99.90;;;;;;4967644;28;20168;-82
2022/03/26 09:36:38;;;;;;;30.13;18.45;;;13.20;99.90;;;;;;4978252;28;20184;-83
2022/03/26 09:39:04;;;;;;;26.33;17.60;;;13.40;99.90;;;;;;4973968;28;20189;-83
2022/03/26 09:41:32;;;;;;;25.75;15.70;;;13.50;99.90;;;;;;4959797;28;20208;-82
2022/03/26 09:43:58;;;;;;;23.80;14.77;;;13.60;99.90;;;;;;4971904;28;20177;-82
2022/03/26 09:46:25;;;;;;;23.55;14.25;;;13.80;99.90;;;;;;4961733;28;20205;-83
2022/03/26 09:48:51;;;;;;;22.58;14.45;;;13.90;99.90;;;;;;4970228;28;20272;-83
2022/03/26 09:51:22;;;;;;;24.38;14.43;;;14.00;99.90;;;;;;4977891;28;20177;-82
2022/03/26 09:53:52;;;;;;;25.00;14.77;;;14.00;99.90;;;;;;4976498;28;20560;-82
2022/03/26 09:56:23;;;;;;;24.42;14.45;;;14.10;99.90;;;;;;4992807;28;20176;-82
2022/03/26 09:58:52;;;;;;;27.92;16.13;;;14.10;99.90;;;;;;4962424;28;20176;-82
2022/03/26 10:01:19;;;;;;;25.30;15.45;;;14.10;99.90;;;;;;4977142;28;20642;-82
2022/03/26 10:04:14;;;;;;;26.67;14.90;;;14.10;99.90;;;;;;4977322;28;20185;-83
2022/03/26 10:06:53;;;;;;;26.65;16.05;;;14.20;99.90;;;;;;4972839;28;20208;-81
2022/03/26 10:09:46;;;;;;;26.17;16.02;;;14.20;99.90;;;;;;4973361;28;20553;-82
2022/03/26 10:12:19;;;;;;;26.15;16.90;;;14.30;99.90;;;;;;4969718;28;20486;-82
2022/03/26 10:14:47;;;;;;;24.90;15.65;;;14.30;99.90;;;;;;4974106;28;20177;-82
2022/03/26 10:17:19;;;;;;;26.70;15.27;;;14.40;99.90;;;;;;4972198;28;20180;-82
2022/03/26 10:19:48;;;;;;;21.77;14.18;;;14.40;99.90;;;;;;4974948;28;20188;-82
2022/03/26 10:22:32;;;;;;;22.73;14.60;;;14.60;99.90;;;;;;4976717;28;20192;-81
2022/03/26 10:25:18;;;;;;;24.60;13.98;;;14.80;98.40;;;;;;4976958;28;20207;-81
2022/03/26 10:27:52;;;;;;;21.60;13.85;;;14.80;98.40;;;;;;4974954;28;20619;-81
2022/03/26 10:33:21;;;;;;;23.48;14.20;;;14.80;98.40;;;;;;4971864;28;20535;-82
2022/03/26 10:35:55;;;;;;;26.38;14.23;;;14.90;99.20;;;;;;4976690;28;20165;-81
2022/03/26 10:38:29;;;;;;;25.15;13.95;;;15.10;97.70;;;;;;4960545;28;20188;-81
2022/03/26 10:41:00;;;;;;;22.63;14.25;;;15.20;97.10;;;;;;4976874;28;20599;-82
2022/03/26 10:43:26;;;;;;;24.23;13.48;;;15.20;97.30;;;;;;4976671;28;20191;-82
2022/03/26 10:45:55;;;;;;;18.65;12.02;;;15.20;96.90;;;;;;4976734;28;20164;-83
2022/03/26 10:48:27;;;;;;;19.42;12.77;;;15.30;97.20;;;;;;4976247;28;20196;-81
2022/03/26 10:51:02;;;;;;;24.15;14.85;;;15.30;96.70;;;;;;4976492;28;20172;-82
2022/03/26 10:53:37;;;;;;;19.20;13.30;;;15.30;96.80;;;;;;4975590;28;20183;-82
2022/03/26 10:56:05;;;;;;;22.63;14.80;;;15.40;98.10;;;;;;4976542;28;20183;-81
2022/03/26 10:58:31;;;;;;;21.30;14.10;;;15.50;97.20;;;;;;4976703;28;20184;-81
2022/03/26 11:00:58;;;;;;;22.75;14.30;;;15.50;96.50;;;;;;4974488;28;20263;-81
2022/03/26 11:03:24;;;;;;;24.80;14.55;;;15.50;98.10;;;;;;4976349;28;20254;-81
2022/03/26 11:05:54;;;;;;;21.90;14.15;;;15.70;96.50;;;;;;4976339;28;20177;-82
2022/03/26 11:08:20;;;;;;;20.80;14.05;;;15.70;96.30;;;;;;4976098;28;20236;-82
2022/03/26 11:10:48;;;;;;;18.83;13.52;;;15.60;96.70;;;;;;4976176;28;20642;-83
2022/03/26 11:13:15;;;;;;;19.98;13.80;;;15.70;97.20;;;;;;4976408;28;20176;-81
2022/03/26 11:15:49;;;;;;;25.15;14.48;;;15.80;97.80;;;;;;4975624;28;20251;-81
2022/03/26 11:18:36;;;;;;;21.08;14.10;;;16.00;97.20;;;;;;4962505;28;20165;-81
2022/03/26 11:21:14;;;;;;;22.55;14.70;;;16.00;96.40;;;;;;4976130;28;20180;-81
2022/03/26 11:24:11;;;;;;;22.90;14.75;;;16.00;96.70;;;;;;4976185;28;20161;-82
2022/03/26 11:27:24;;;;;;;23.67;14.48;;;16.00;96.60;;;;;;4975820;28;20691;-81
2022/03/26 11:30:08;;;;;;;20.65;13.88;;;15.90;97.00;;;;;;4975646;28;20275;-81
2022/03/26 11:32:43;;;;;;;22.95;14.07;;;15.80;97.70;;;;;;4957918;28;20555;-80
2022/03/26 11:35:14;;;;;;;23.75;15.35;;;15.90;98.00;;;;;;4975811;28;20694;-81
2022/03/26 11:38:02;;;;;;;20.63;13.80;;;15.80;97.40;;;;;;4975629;28;20173;-81
2022/03/26 11:40:43;;;;;;;23.13;13.95;;;15.90;98.10;;;;;;4975832;28;20703;-81
2022/03/26 11:43:35;;;;;;;21.83;14.77;;;16.20;98.10;;;;;;4975580;28;20220;-82
2022/03/26 11:51:37;;;;;;;24.63;14.82;;;16.20;97.80;;;;;;4976037;28;20203;-81
2022/03/26 11:54:14;;;;;;;21.33;14.32;;;16.10;97.20;;;;;;4975610;28;20276;-82
2022/03/26 11:56:40;;;;;;;19.73;13.85;;;16.00;97.60;;;;;;4975777;28;20499;-80
2022/03/26 11:59:17;;;;;;;24.92;14.73;;;15.80;97.70;;;;;;4975302;28;20212;-81
2022/03/26 12:01:48;;;;;;;22.88;13.13;;;15.70;97.90;;;;;;4975649;28;20164;-82
2022/03/26 12:04:19;;;;;;;20.90;14.27;;;15.60;99.10;;;;;;4975141;28;20228;-80
2022/03/26 12:06:59;;;;;;;20.08;13.18;;;15.60;99.00;;;;;;4975550;28;20208;-81
2022/03/26 12:09:33;;;;;;;21.05;13.45;;;15.70;99.70;;;;;;4975259;28;20306;-80
2022/03/26 12:12:05;;;;;;;24.73;13.68;;;15.90;99.00;;;;;;4974150;28;20179;-82
2022/03/26 12:14:34;;;;;;;22.88;14.80;;;16.00;98.50;;;;;;4975514;28;20567;-81
2022/03/26 12:17:01;;;;;;;20.30;13.50;;;16.00;97.70;;;;;;4975252;28;20261;-81
2022/03/26 12:19:41;;;;;;;19.73;13.88;;;16.00;98.20;;;;;;4975180;28;20172;-80
2022/03/26 12:22:20;;;;;;;17.58;12.40;;;16.20;98.10;;;;;;4973621;28;20207;-78
2022/03/26 12:24:49;;;;;;;15.55;11.23;;;16.50;98.70;;;;;;4967471;28;20183;-80
2022/03/26 12:27:16;;;;;;;17.92;12.15;;;17.00;97.80;;;;;;4975519;28;20212;-80
2022/03/26 12:29:42;;;;;;;19.35;12.10;;;17.20;96.80;;;;;;4975005;28;20231;-80
2022/03/26 12:32:08;;;;;;;18.50;12.07;;;17.10;96.90;;;;;;4974939;28;20189;-80
2022/03/26 12:34:34;;;;;;;17.80;11.85;;;17.20;97.50;;;;;;4975077;28;20173;-81
2022/03/26 12:37:01;;;;;;;19.98;11.23;;;17.20;96.80;;;;;;4975305;28;20264;-80
2022/03/26 12:39:27;;;;;;;23.55;11.73;;;17.30;96.60;;;;;;4974032;28;20173;-79
2022/03/26 12:41:54;;;;;;;16.77;11.82;;;17.50;96.70;;;;;;4975603;28;20247;-80
2022/03/26 12:44:22;;;;;;;17.30;11.52;;;17.50;96.50;;;;;;4975091;28;20180;-81
2022/03/26 12:46:50;;;;;;;18.33;11.95;;;17.70;95.70;;;;;;4975066;28;20204;-80